sensor_id;sensor_type;location;lat;lon;timestamp;P1;durP1;ratioP1;P2;durP2;ratioP2
15340;SDS011;7770;52.158;5.372;2022-12-18T00:00:41;98.10;;;43.07;;
15340;SDS011;7770;52.158;5.372;2022-12-18T00:03:27;107.27;;;45.50;;
15340;SDS011;7770;52.158;5.372;2022-12-18T00:06:14;103.90;;;47.60;;
15340;SDS011;7770;52.158;5.372;2022-12-18T00:09:01;105.40;;;46.80;;
15340;SDS011;7770;52.158;5.372;2022-12-18T00:11:48;109.47;;;49.23;;
15340;SDS011;7770;52.158;5.372;2022-12-18T00:14:34;100.30;;;45.23;;
15340;SDS011;7770;52.158;5.372;2022-12-18T00:17:20;92.30;;;39.90;;
15340;SDS011;7770;52.158;5.372;2022-12-18T00:20:06;104.93;;;46.70;;
15340;SDS011;7770;52.158;5.372;2022-12-18T00:22:53;95.70;;;45.50;;
15340;SDS011;7770;52.158;5.372;2022-12-18T00:25:40;97.60;;;44.03;;
15340;SDS011;7770;52.158;5.372;2022-12-18T00:28:26;106.47;;;46.43;;
15340;SDS011;7770;52.158;5.372;2022-12-18T00:31:13;100.30;;;45.10;;
15340;SDS011;7770;52.158;5.372;2022-12-18T00:34:02;98.13;;;44.53;;
15340;SDS011;7770;52.158;5.372;2022-12-18T00:36:48;100.20;;;44.90;;
15340;SDS011;7770;52.158;5.372;2022-12-18T00:39:34;111.33;;;46.63;;
15340;SDS011;7770;52.158;5.372;2022-12-18T00:42:20;106.93;;;49.23;;
15340;SDS011;7770;52.158;5.372;2022-12-18T00:45:26;111.50;;;51.40;;
15340;SDS011;7770;52.158;5.372;2022-12-18T00:48:16;110.10;;;47.97;;
15340;SDS011;7770;52.158;5.372;2022-12-18T00:51:02;103.73;;;46.37;;
15340;SDS011;7770;52.158;5.372;2022-12-18T00:53:48;107.13;;;45.07;;
15340;SDS011;7770;52.158;5.372;2022-12-18T00:56:37;104.07;;;45.97;;
15340;SDS011;7770;52.158;5.372;2022-12-18T00:59:24;115.23;;;50.10;;
15340;SDS011;7770;52.158;5.372;2022-12-18T01:02:10;111.27;;;49.53;;
15340;SDS011;7770;52.158;5.372;2022-12-18T01:04:57;114.03;;;46.03;;
15340;SDS011;7770;52.158;5.372;2022-12-18T01:07:43;115.47;;;49.50;;
15340;SDS011;7770;52.158;5.372;2022-12-18T01:10:29;109.27;;;46.73;;
15340;SDS011;7770;52.158;5.372;2022-12-18T01:13:15;118.07;;;48.37;;
15340;SDS011;7770;52.158;5.372;2022-12-18T01:16:02;108.83;;;46.70;;
15340;SDS011;7770;52.158;5.372;2022-12-18T01:18:50;106.30;;;46.73;;
15340;SDS011;7770;52.158;5.372;2022-12-18T01:21:38;112.90;;;46.83;;
15340;SDS011;7770;52.158;5.372;2022-12-18T01:24:25;107.57;;;46.67;;
15340;SDS011;7770;52.158;5.372;2022-12-18T01:27:11;101.33;;;47.33;;
15340;SDS011;7770;52.158;5.372;2022-12-18T01:29:57;113.30;;;49.60;;
15340;SDS011;7770;52.158;5.372;2022-12-18T01:32:43;113.57;;;48.30;;
15340;SDS011;7770;52.158;5.372;2022-12-18T01:35:29;119.13;;;50.57;;
15340;SDS011;7770;52.158;5.372;2022-12-18T01:38:15;103.00;;;48.73;;
15340;SDS011;7770;52.158;5.372;2022-12-18T01:41:01;108.67;;;47.40;;
15340;SDS011;7770;52.158;5.372;2022-12-18T01:43:54;103.07;;;47.63;;
15340;SDS011;7770;52.158;5.372;2022-12-18T01:46:42;107.50;;;47.37;;
15340;SDS011;7770;52.158;5.372;2022-12-18T01:49:28;108.60;;;46.00;;
15340;SDS011;7770;52.158;5.372;2022-12-18T01:52:14;103.87;;;46.70;;
15340;SDS011;7770;52.158;5.372;2022-12-18T01:55:03;106.40;;;48.20;;
15340;SDS011;7770;52.158;5.372;2022-12-18T01:57:54;102.37;;;47.77;;
15340;SDS011;7770;52.158;5.372;2022-12-18T02:00:43;104.77;;;47.43;;
15340;SDS011;7770;52.158;5.372;2022-12-18T02:03:29;97.30;;;45.93;;
15340;SDS011;7770;52.158;5.372;2022-12-18T02:06:16;104.43;;;46.63;;
15340;SDS011;7770;52.158;5.372;2022-12-18T02:09:17;96.60;;;45.53;;
15340;SDS011;7770;52.158;5.372;2022-12-18T02:12:15;99.20;;;44.77;;
15340;SDS011;7770;52.158;5.372;2022-12-18T02:15:13;103.73;;;43.53;;
15340;SDS011;7770;52.158;5.372;2022-12-18T02:18:18;99.77;;;45.40;;
15340;SDS011;7770;52.158;5.372;2022-12-18T02:24:27;100.37;;;45.80;;
15340;SDS011;7770;52.158;5.372;2022-12-18T02:27:29;95.20;;;44.77;;
15340;SDS011;7770;52.158;5.372;2022-12-18T02:30:19;103.13;;;44.33;;
15340;SDS011;7770;52.158;5.372;2022-12-18T02:33:06;94.47;;;42.07;;
15340;SDS011;7770;52.158;5.372;2022-12-18T02:35:54;101.73;;;45.13;;
15340;SDS011;7770;52.158;5.372;2022-12-18T02:38:42;96.20;;;44.10;;
15340;SDS011;7770;52.158;5.372;2022-12-18T02:41:29;93.57;;;44.40;;
15340;SDS011;7770;52.158;5.372;2022-12-18T02:44:16;101.83;;;44.97;;
15340;SDS011;7770;52.158;5.372;2022-12-18T02:47:02;94.13;;;45.20;;
15340;SDS011;7770;52.158;5.372;2022-12-18T02:50:02;90.03;;;43.20;;
15340;SDS011;7770;52.158;5.372;2022-12-18T02:59:00;96.03;;;44.97;;
15340;SDS011;7770;52.158;5.372;2022-12-18T03:04:43;90.67;;;43.30;;
15340;SDS011;7770;52.158;5.372;2022-12-18T03:07:49;85.10;;;42.50;;
15340;SDS011;7770;52.158;5.372;2022-12-18T03:10:51;90.27;;;43.33;;
15340;SDS011;7770;52.158;5.372;2022-12-18T03:13:51;84.73;;;42.50;;
15340;SDS011;7770;52.158;5.372;2022-12-18T03:16:42;92.83;;;42.13;;
15340;SDS011;7770;52.158;5.372;2022-12-18T03:19:31;92.13;;;42.93;;
15340;SDS011;7770;52.158;5.372;2022-12-18T03:22:18;88.83;;;43.23;;
15340;SDS011;7770;52.158;5.372;2022-12-18T03:25:06;89.43;;;42.23;;
15340;SDS011;7770;52.158;5.372;2022-12-18T03:27:56;81.10;;;41.70;;
15340;SDS011;7770;52.158;5.372;2022-12-18T03:30:46;80.90;;;41.67;;
15340;SDS011;7770;52.158;5.372;2022-12-18T03:33:38;83.30;;;41.37;;
15340;SDS011;7770;52.158;5.372;2022-12-18T03:36:32;86.43;;;41.40;;
15340;SDS011;7770;52.158;5.372;2022-12-18T03:39:18;84.30;;;40.67;;
15340;SDS011;7770;52.158;5.372;2022-12-18T03:42:15;88.10;;;43.50;;
15340;SDS011;7770;52.158;5.372;2022-12-18T03:45:18;79.07;;;40.73;;
15340;SDS011;7770;52.158;5.372;2022-12-18T03:51:27;79.53;;;39.90;;
15340;SDS011;7770;52.158;5.372;2022-12-18T03:54:21;80.67;;;38.60;;
15340;SDS011;7770;52.158;5.372;2022-12-18T03:57:18;74.60;;;38.20;;
15340;SDS011;7770;52.158;5.372;2022-12-18T04:00:09;75.73;;;39.07;;
15340;SDS011;7770;52.158;5.372;2022-12-18T04:02:59;75.93;;;37.50;;
15340;SDS011;7770;52.158;5.372;2022-12-18T04:05:47;74.93;;;39.60;;
15340;SDS011;7770;52.158;5.372;2022-12-18T04:08:36;65.63;;;35.23;;
15340;SDS011;7770;52.158;5.372;2022-12-18T04:11:24;70.23;;;34.90;;
15340;SDS011;7770;52.158;5.372;2022-12-18T04:14:10;70.23;;;36.10;;
15340;SDS011;7770;52.158;5.372;2022-12-18T04:16:57;67.93;;;36.53;;
15340;SDS011;7770;52.158;5.372;2022-12-18T04:19:43;69.27;;;37.30;;
15340;SDS011;7770;52.158;5.372;2022-12-18T04:22:29;63.03;;;36.07;;
15340;SDS011;7770;52.158;5.372;2022-12-18T04:25:15;62.47;;;34.83;;
15340;SDS011;7770;52.158;5.372;2022-12-18T04:28:01;67.30;;;35.30;;
15340;SDS011;7770;52.158;5.372;2022-12-18T04:30:47;61.17;;;33.53;;
15340;SDS011;7770;52.158;5.372;2022-12-18T04:33:33;58.13;;;31.90;;
15340;SDS011;7770;52.158;5.372;2022-12-18T04:36:19;57.30;;;33.13;;
15340;SDS011;7770;52.158;5.372;2022-12-18T04:39:05;58.50;;;30.97;;
15340;SDS011;7770;52.158;5.372;2022-12-18T04:41:51;55.90;;;31.83;;
15340;SDS011;7770;52.158;5.372;2022-12-18T04:44:37;57.07;;;32.20;;
15340;SDS011;7770;52.158;5.372;2022-12-18T04:47:23;57.87;;;33.40;;
15340;SDS011;7770;52.158;5.372;2022-12-18T04:50:09;54.77;;;31.47;;
15340;SDS011;7770;52.158;5.372;2022-12-18T04:52:55;52.27;;;30.93;;
15340;SDS011;7770;52.158;5.372;2022-12-18T04:55:41;47.77;;;28.53;;
15340;SDS011;7770;52.158;5.372;2022-12-18T04:58:27;49.53;;;29.90;;
15340;SDS011;7770;52.158;5.372;2022-12-18T05:01:14;48.40;;;30.57;;
15340;SDS011;7770;52.158;5.372;2022-12-18T05:04:02;46.37;;;28.90;;
15340;SDS011;7770;52.158;5.372;2022-12-18T05:06:48;50.63;;;30.13;;
15340;SDS011;7770;52.158;5.372;2022-12-18T05:09:34;48.93;;;28.40;;
15340;SDS011;7770;52.158;5.372;2022-12-18T05:12:20;43.13;;;27.00;;
15340;SDS011;7770;52.158;5.372;2022-12-18T05:15:06;44.93;;;27.30;;
15340;SDS011;7770;52.158;5.372;2022-12-18T05:17:53;48.97;;;27.80;;
15340;SDS011;7770;52.158;5.372;2022-12-18T05:20:39;47.53;;;28.07;;
15340;SDS011;7770;52.158;5.372;2022-12-18T05:23:25;45.77;;;28.53;;
15340;SDS011;7770;52.158;5.372;2022-12-18T05:26:14;50.90;;;29.17;;
15340;SDS011;7770;52.158;5.372;2022-12-18T05:29:02;46.40;;;28.70;;
15340;SDS011;7770;52.158;5.372;2022-12-18T05:31:48;45.40;;;27.67;;
15340;SDS011;7770;52.158;5.372;2022-12-18T05:34:34;43.80;;;27.73;;
15340;SDS011;7770;52.158;5.372;2022-12-18T05:37:20;44.30;;;27.03;;
15340;SDS011;7770;52.158;5.372;2022-12-18T05:40:07;46.00;;;24.87;;
15340;SDS011;7770;52.158;5.372;2022-12-18T05:42:53;42.50;;;26.23;;
15340;SDS011;7770;52.158;5.372;2022-12-18T05:45:39;42.27;;;25.63;;
15340;SDS011;7770;52.158;5.372;2022-12-18T05:48:26;41.03;;;25.27;;
15340;SDS011;7770;52.158;5.372;2022-12-18T05:51:16;39.73;;;25.80;;
15340;SDS011;7770;52.158;5.372;2022-12-18T05:54:04;40.30;;;25.10;;
15340;SDS011;7770;52.158;5.372;2022-12-18T05:56:50;38.57;;;23.87;;
15340;SDS011;7770;52.158;5.372;2022-12-18T05:59:36;41.03;;;25.17;;
15340;SDS011;7770;52.158;5.372;2022-12-18T06:02:22;42.67;;;25.67;;
15340;SDS011;7770;52.158;5.372;2022-12-18T06:05:08;36.67;;;24.00;;
15340;SDS011;7770;52.158;5.372;2022-12-18T06:07:54;41.80;;;23.57;;
15340;SDS011;7770;52.158;5.372;2022-12-18T06:10:40;36.13;;;21.97;;
15340;SDS011;7770;52.158;5.372;2022-12-18T06:13:27;38.90;;;23.43;;
15340;SDS011;7770;52.158;5.372;2022-12-18T06:16:13;38.30;;;24.60;;
15340;SDS011;7770;52.158;5.372;2022-12-18T06:18:59;38.77;;;23.97;;
15340;SDS011;7770;52.158;5.372;2022-12-18T06:21:48;39.07;;;25.37;;
15340;SDS011;7770;52.158;5.372;2022-12-18T06:24:34;40.70;;;24.63;;
15340;SDS011;7770;52.158;5.372;2022-12-18T06:27:20;45.53;;;26.50;;
15340;SDS011;7770;52.158;5.372;2022-12-18T06:30:06;39.90;;;24.30;;
15340;SDS011;7770;52.158;5.372;2022-12-18T06:32:53;39.27;;;24.10;;
15340;SDS011;7770;52.158;5.372;2022-12-18T06:35:39;40.03;;;25.53;;
15340;SDS011;7770;52.158;5.372;2022-12-18T06:38:26;38.20;;;25.03;;
15340;SDS011;7770;52.158;5.372;2022-12-18T06:41:13;37.60;;;24.20;;
15340;SDS011;7770;52.158;5.372;2022-12-18T06:44:02;41.33;;;25.13;;
15340;SDS011;7770;52.158;5.372;2022-12-18T06:46:48;40.13;;;25.13;;
15340;SDS011;7770;52.158;5.372;2022-12-18T06:49:34;42.20;;;25.27;;
15340;SDS011;7770;52.158;5.372;2022-12-18T06:52:20;43.63;;;24.43;;
15340;SDS011;7770;52.158;5.372;2022-12-18T06:55:08;42.10;;;24.27;;
15340;SDS011;7770;52.158;5.372;2022-12-18T06:57:54;35.30;;;22.87;;
15340;SDS011;7770;52.158;5.372;2022-12-18T07:00:40;46.13;;;26.53;;
15340;SDS011;7770;52.158;5.372;2022-12-18T07:03:26;41.27;;;26.70;;
15340;SDS011;7770;52.158;5.372;2022-12-18T07:06:13;38.07;;;24.23;;
15340;SDS011;7770;52.158;5.372;2022-12-18T07:09:02;39.93;;;26.03;;
15340;SDS011;7770;52.158;5.372;2022-12-18T07:11:48;44.53;;;26.57;;
15340;SDS011;7770;52.158;5.372;2022-12-18T07:14:34;40.57;;;25.63;;
15340;SDS011;7770;52.158;5.372;2022-12-18T07:17:20;36.07;;;23.67;;
15340;SDS011;7770;52.158;5.372;2022-12-18T07:20:06;44.40;;;27.13;;
15340;SDS011;7770;52.158;5.372;2022-12-18T07:22:53;42.00;;;26.57;;
15340;SDS011;7770;52.158;5.372;2022-12-18T07:25:39;47.63;;;29.27;;
15340;SDS011;7770;52.158;5.372;2022-12-18T07:28:25;37.33;;;22.13;;
15340;SDS011;7770;52.158;5.372;2022-12-18T07:31:19;45.77;;;28.00;;
15340;SDS011;7770;52.158;5.372;2022-12-18T07:34:09;44.27;;;26.93;;
15340;SDS011;7770;52.158;5.372;2022-12-18T07:36:57;41.47;;;26.23;;
15340;SDS011;7770;52.158;5.372;2022-12-18T07:39:43;43.77;;;26.70;;
15340;SDS011;7770;52.158;5.372;2022-12-18T07:42:29;44.10;;;29.23;;
15340;SDS011;7770;52.158;5.372;2022-12-18T07:45:15;45.13;;;28.87;;
15340;SDS011;7770;52.158;5.372;2022-12-18T07:48:01;44.10;;;27.37;;
15340;SDS011;7770;52.158;5.372;2022-12-18T07:50:47;46.93;;;27.67;;
15340;SDS011;7770;52.158;5.372;2022-12-18T07:53:34;45.10;;;27.40;;
15340;SDS011;7770;52.158;5.372;2022-12-18T07:56:21;45.67;;;27.90;;
15340;SDS011;7770;52.158;5.372;2022-12-18T07:59:07;40.93;;;27.90;;
15340;SDS011;7770;52.158;5.372;2022-12-18T08:01:53;46.63;;;27.33;;
15340;SDS011;7770;52.158;5.372;2022-12-18T08:04:39;45.33;;;29.03;;
15340;SDS011;7770;52.158;5.372;2022-12-18T08:07:25;45.43;;;28.27;;
15340;SDS011;7770;52.158;5.372;2022-12-18T08:10:11;46.97;;;29.00;;
15340;SDS011;7770;52.158;5.372;2022-12-18T08:12:57;43.83;;;27.77;;
15340;SDS011;7770;52.158;5.372;2022-12-18T08:15:43;43.87;;;27.67;;
15340;SDS011;7770;52.158;5.372;2022-12-18T08:18:29;38.03;;;23.33;;
15340;SDS011;7770;52.158;5.372;2022-12-18T08:21:19;41.40;;;25.63;;
15340;SDS011;7770;52.158;5.372;2022-12-18T08:24:13;39.93;;;26.30;;
15340;SDS011;7770;52.158;5.372;2022-12-18T08:26:59;41.33;;;28.23;;
15340;SDS011;7770;52.158;5.372;2022-12-18T08:29:45;41.47;;;28.70;;
15340;SDS011;7770;52.158;5.372;2022-12-18T08:32:32;44.47;;;31.50;;
15340;SDS011;7770;52.158;5.372;2022-12-18T08:35:18;50.03;;;34.77;;
15340;SDS011;7770;52.158;5.372;2022-12-18T08:38:04;42.90;;;32.07;;
15340;SDS011;7770;52.158;5.372;2022-12-18T08:40:54;48.43;;;33.00;;
15340;SDS011;7770;52.158;5.372;2022-12-18T08:43:49;51.17;;;33.00;;
15340;SDS011;7770;52.158;5.372;2022-12-18T08:46:54;42.03;;;27.60;;
15340;SDS011;7770;52.158;5.372;2022-12-18T08:49:40;45.93;;;31.47;;
15340;SDS011;7770;52.158;5.372;2022-12-18T08:52:26;37.47;;;26.47;;
15340;SDS011;7770;52.158;5.372;2022-12-18T08:55:13;41.63;;;28.80;;
15340;SDS011;7770;52.158;5.372;2022-12-18T08:57:59;37.63;;;26.43;;
15340;SDS011;7770;52.158;5.372;2022-12-18T09:00:45;41.80;;;27.57;;
15340;SDS011;7770;52.158;5.372;2022-12-18T09:03:31;42.23;;;29.53;;
15340;SDS011;7770;52.158;5.372;2022-12-18T09:06:19;36.00;;;26.87;;
15340;SDS011;7770;52.158;5.372;2022-12-18T09:09:07;32.20;;;24.90;;
15340;SDS011;7770;52.158;5.372;2022-12-18T09:11:54;35.77;;;25.67;;
15340;SDS011;7770;52.158;5.372;2022-12-18T09:14:40;33.50;;;24.67;;
15340;SDS011;7770;52.158;5.372;2022-12-18T09:17:26;35.87;;;25.30;;
15340;SDS011;7770;52.158;5.372;2022-12-18T09:20:12;34.87;;;25.00;;
15340;SDS011;7770;52.158;5.372;2022-12-18T09:22:58;37.30;;;25.03;;
15340;SDS011;7770;52.158;5.372;2022-12-18T09:25:44;33.40;;;23.53;;
15340;SDS011;7770;52.158;5.372;2022-12-18T09:28:30;35.40;;;24.73;;
15340;SDS011;7770;52.158;5.372;2022-12-18T09:31:17;35.07;;;25.33;;
15340;SDS011;7770;52.158;5.372;2022-12-18T09:34:05;34.83;;;25.03;;
15340;SDS011;7770;52.158;5.372;2022-12-18T09:36:52;36.23;;;25.37;;
15340;SDS011;7770;52.158;5.372;2022-12-18T09:39:38;35.73;;;26.60;;
15340;SDS011;7770;52.158;5.372;2022-12-18T09:42:24;37.20;;;25.90;;
15340;SDS011;7770;52.158;5.372;2022-12-18T09:45:11;28.57;;;18.67;;
15340;SDS011;7770;52.158;5.372;2022-12-18T09:48:00;34.47;;;26.03;;
15340;SDS011;7770;52.158;5.372;2022-12-18T09:50:47;41.50;;;25.23;;
15340;SDS011;7770;52.158;5.372;2022-12-18T09:53:35;34.73;;;26.10;;
15340;SDS011;7770;52.158;5.372;2022-12-18T09:56:23;38.17;;;25.33;;
15340;SDS011;7770;52.158;5.372;2022-12-18T09:59:32;38.93;;;27.00;;
15340;SDS011;7770;52.158;5.372;2022-12-18T10:02:23;32.80;;;23.67;;
15340;SDS011;7770;52.158;5.372;2022-12-18T10:05:19;33.93;;;24.83;;
15340;SDS011;7770;52.158;5.372;2022-12-18T10:08:17;31.83;;;23.60;;
15340;SDS011;7770;52.158;5.372;2022-12-18T10:14:54;34.43;;;24.67;;
15340;SDS011;7770;52.158;5.372;2022-12-18T10:18:15;35.57;;;23.37;;
15340;SDS011;7770;52.158;5.372;2022-12-18T10:21:23;32.50;;;22.03;;
15340;SDS011;7770;52.158;5.372;2022-12-18T10:24:23;31.37;;;24.13;;
15340;SDS011;7770;52.158;5.372;2022-12-18T10:27:24;36.67;;;25.43;;
15340;SDS011;7770;52.158;5.372;2022-12-18T10:30:13;37.50;;;26.57;;
15340;SDS011;7770;52.158;5.372;2022-12-18T10:33:03;29.70;;;18.77;;
15340;SDS011;7770;52.158;5.372;2022-12-18T10:35:52;32.20;;;22.10;;
15340;SDS011;7770;52.158;5.372;2022-12-18T10:38:39;28.57;;;19.90;;
15340;SDS011;7770;52.158;5.372;2022-12-18T10:41:26;29.30;;;21.87;;
15340;SDS011;7770;52.158;5.372;2022-12-18T10:44:22;31.67;;;21.37;;
15340;SDS011;7770;52.158;5.372;2022-12-18T10:47:15;28.70;;;21.23;;
15340;SDS011;7770;52.158;5.372;2022-12-18T10:50:04;30.87;;;21.00;;
15340;SDS011;7770;52.158;5.372;2022-12-18T10:52:54;26.90;;;19.97;;
15340;SDS011;7770;52.158;5.372;2022-12-18T10:55:44;24.77;;;18.70;;
15340;SDS011;7770;52.158;5.372;2022-12-18T10:58:36;26.17;;;19.80;;
15340;SDS011;7770;52.158;5.372;2022-12-18T11:01:24;25.97;;;19.70;;
15340;SDS011;7770;52.158;5.372;2022-12-18T11:04:13;31.60;;;21.63;;
15340;SDS011;7770;52.158;5.372;2022-12-18T11:07:08;29.87;;;20.93;;
15340;SDS011;7770;52.158;5.372;2022-12-18T11:09:59;27.50;;;19.30;;
15340;SDS011;7770;52.158;5.372;2022-12-18T11:12:48;28.37;;;20.10;;
15340;SDS011;7770;52.158;5.372;2022-12-18T11:15:34;26.60;;;18.23;;
15340;SDS011;7770;52.158;5.372;2022-12-18T11:18:25;28.00;;;19.60;;
15340;SDS011;7770;52.158;5.372;2022-12-18T11:21:17;27.73;;;17.80;;
15340;SDS011;7770;52.158;5.372;2022-12-18T11:24:03;26.47;;;18.47;;
15340;SDS011;7770;52.158;5.372;2022-12-18T11:26:50;26.77;;;17.30;;
15340;SDS011;7770;52.158;5.372;2022-12-18T11:29:37;24.93;;;19.07;;
15340;SDS011;7770;52.158;5.372;2022-12-18T11:32:43;44.33;;;30.23;;
15340;SDS011;7770;52.158;5.372;2022-12-18T11:35:50;30.90;;;23.00;;
15340;SDS011;7770;52.158;5.372;2022-12-18T11:38:44;27.07;;;19.07;;
15340;SDS011;7770;52.158;5.372;2022-12-18T11:48:05;28.73;;;20.23;;
15340;SDS011;7770;52.158;5.372;2022-12-18T11:51:04;26.40;;;19.07;;
15340;SDS011;7770;52.158;5.372;2022-12-18T11:53:57;25.30;;;18.93;;
15340;SDS011;7770;52.158;5.372;2022-12-18T11:56:56;26.47;;;18.60;;
15340;SDS011;7770;52.158;5.372;2022-12-18T12:00:12;28.33;;;19.27;;
15340;SDS011;7770;52.158;5.372;2022-12-18T12:03:15;29.20;;;20.10;;
15340;SDS011;7770;52.158;5.372;2022-12-18T12:06:36;27.60;;;20.17;;
15340;SDS011;7770;52.158;5.372;2022-12-18T12:09:53;28.37;;;20.30;;
15340;SDS011;7770;52.158;5.372;2022-12-18T12:13:08;25.10;;;18.87;;
15340;SDS011;7770;52.158;5.372;2022-12-18T12:29:32;24.93;;;18.43;;
15340;SDS011;7770;52.158;5.372;2022-12-18T12:35:58;25.00;;;18.53;;
15340;SDS011;7770;52.158;5.372;2022-12-18T12:39:08;24.70;;;17.27;;
15340;SDS011;7770;52.158;5.372;2022-12-18T12:42:01;25.37;;;19.07;;
15340;SDS011;7770;52.158;5.372;2022-12-18T12:45:19;25.57;;;16.87;;
15340;SDS011;7770;52.158;5.372;2022-12-18T12:48:17;25.83;;;19.70;;
15340;SDS011;7770;52.158;5.372;2022-12-18T12:51:25;22.77;;;17.20;;
15340;SDS011;7770;52.158;5.372;2022-12-18T12:54:19;40.73;;;28.07;;
15340;SDS011;7770;52.158;5.372;2022-12-18T13:03:08;34.63;;;25.47;;
15340;SDS011;7770;52.158;5.372;2022-12-18T13:06:12;28.53;;;23.73;;
15340;SDS011;7770;52.158;5.372;2022-12-18T13:09:23;24.93;;;19.37;;
15340;SDS011;7770;52.158;5.372;2022-12-18T13:12:10;22.43;;;17.10;;
15340;SDS011;7770;52.158;5.372;2022-12-18T13:15:49;23.57;;;16.43;;
15340;SDS011;7770;52.158;5.372;2022-12-18T13:18:55;23.90;;;17.30;;
15340;SDS011;7770;52.158;5.372;2022-12-18T13:21:44;24.90;;;18.93;;
15340;SDS011;7770;52.158;5.372;2022-12-18T13:24:40;26.17;;;17.73;;
15340;SDS011;7770;52.158;5.372;2022-12-18T13:36:16;23.07;;;17.03;;
15340;SDS011;7770;52.158;5.372;2022-12-18T13:44:50;26.13;;;19.13;;
15340;SDS011;7770;52.158;5.372;2022-12-18T13:47:36;26.83;;;19.20;;
15340;SDS011;7770;52.158;5.372;2022-12-18T13:50:23;27.30;;;20.43;;
15340;SDS011;7770;52.158;5.372;2022-12-18T13:53:21;37.37;;;27.63;;
15340;SDS011;7770;52.158;5.372;2022-12-18T13:56:16;30.23;;;20.77;;
15340;SDS011;7770;52.158;5.372;2022-12-18T13:59:05;31.20;;;23.00;;
15340;SDS011;7770;52.158;5.372;2022-12-18T14:02:13;32.93;;;27.00;;
15340;SDS011;7770;52.158;5.372;2022-12-18T14:05:01;30.30;;;22.17;;
15340;SDS011;7770;52.158;5.372;2022-12-18T14:07:48;32.90;;;23.80;;
15340;SDS011;7770;52.158;5.372;2022-12-18T14:10:34;33.70;;;22.97;;
15340;SDS011;7770;52.158;5.372;2022-12-18T14:13:24;30.43;;;22.43;;
15340;SDS011;7770;52.158;5.372;2022-12-18T14:16:23;27.20;;;20.50;;
15340;SDS011;7770;52.158;5.372;2022-12-18T14:19:16;29.57;;;22.43;;
15340;SDS011;7770;52.158;5.372;2022-12-18T14:22:03;29.63;;;23.60;;
15340;SDS011;7770;52.158;5.372;2022-12-18T14:24:58;29.37;;;21.33;;
15340;SDS011;7770;52.158;5.372;2022-12-18T14:30:53;26.70;;;19.30;;
15340;SDS011;7770;52.158;5.372;2022-12-18T14:33:40;62.63;;;36.07;;
15340;SDS011;7770;52.158;5.372;2022-12-18T14:36:27;29.07;;;19.13;;
15340;SDS011;7770;52.158;5.372;2022-12-18T14:39:16;26.87;;;18.50;;
15340;SDS011;7770;52.158;5.372;2022-12-18T14:42:03;28.27;;;19.57;;
15340;SDS011;7770;52.158;5.372;2022-12-18T14:44:49;29.27;;;19.37;;
15340;SDS011;7770;52.158;5.372;2022-12-18T14:47:35;38.70;;;26.43;;
15340;SDS011;7770;52.158;5.372;2022-12-18T14:50:21;40.23;;;29.90;;
15340;SDS011;7770;52.158;5.372;2022-12-18T14:53:18;40.47;;;30.07;;
15340;SDS011;7770;52.158;5.372;2022-12-18T14:56:19;29.57;;;21.47;;
15340;SDS011;7770;52.158;5.372;2022-12-18T14:59:14;27.00;;;19.60;;
15340;SDS011;7770;52.158;5.372;2022-12-18T15:07:59;23.03;;;16.10;;
15340;SDS011;7770;52.158;5.372;2022-12-18T15:10:47;26.60;;;19.73;;
15340;SDS011;7770;52.158;5.372;2022-12-18T15:13:33;28.03;;;19.83;;
15340;SDS011;7770;52.158;5.372;2022-12-18T15:16:19;25.17;;;18.77;;
15340;SDS011;7770;52.158;5.372;2022-12-18T15:19:07;28.47;;;20.20;;
15340;SDS011;7770;52.158;5.372;2022-12-18T15:21:53;25.83;;;18.07;;
15340;SDS011;7770;52.158;5.372;2022-12-18T15:24:39;25.97;;;19.40;;
15340;SDS011;7770;52.158;5.372;2022-12-18T15:27:26;28.60;;;19.30;;
15340;SDS011;7770;52.158;5.372;2022-12-18T15:30:24;26.80;;;17.10;;
15340;SDS011;7770;52.158;5.372;2022-12-18T15:33:22;28.40;;;20.37;;
15340;SDS011;7770;52.158;5.372;2022-12-18T15:36:12;28.93;;;19.77;;
15340;SDS011;7770;52.158;5.372;2022-12-18T15:39:00;27.53;;;19.57;;
15340;SDS011;7770;52.158;5.372;2022-12-18T15:41:47;30.10;;;21.57;;
15340;SDS011;7770;52.158;5.372;2022-12-18T15:44:52;32.77;;;24.40;;
15340;SDS011;7770;52.158;5.372;2022-12-18T15:47:38;49.80;;;35.27;;
15340;SDS011;7770;52.158;5.372;2022-12-18T15:50:25;38.33;;;25.30;;
15340;SDS011;7770;52.158;5.372;2022-12-18T15:53:11;31.70;;;24.20;;
15340;SDS011;7770;52.158;5.372;2022-12-18T15:55:57;30.70;;;22.17;;
15340;SDS011;7770;52.158;5.372;2022-12-18T15:59:02;30.77;;;20.70;;
15340;SDS011;7770;52.158;5.372;2022-12-18T16:01:56;30.93;;;20.63;;
15340;SDS011;7770;52.158;5.372;2022-12-18T16:04:42;28.13;;;20.53;;
15340;SDS011;7770;52.158;5.372;2022-12-18T16:07:28;69.83;;;38.83;;
15340;SDS011;7770;52.158;5.372;2022-12-18T16:10:15;43.67;;;29.83;;
15340;SDS011;7770;52.158;5.372;2022-12-18T16:13:01;31.17;;;23.03;;
15340;SDS011;7770;52.158;5.372;2022-12-18T16:15:47;32.97;;;21.57;;
15340;SDS011;7770;52.158;5.372;2022-12-18T16:18:33;35.83;;;23.17;;
15340;SDS011;7770;52.158;5.372;2022-12-18T16:21:19;75.03;;;46.83;;
15340;SDS011;7770;52.158;5.372;2022-12-18T16:24:05;45.57;;;29.47;;
15340;SDS011;7770;52.158;5.372;2022-12-18T16:27:00;34.37;;;24.30;;
15340;SDS011;7770;52.158;5.372;2022-12-18T16:29:46;30.77;;;20.67;;
15340;SDS011;7770;52.158;5.372;2022-12-18T16:32:32;33.17;;;23.07;;
15340;SDS011;7770;52.158;5.372;2022-12-18T16:35:18;30.80;;;22.70;;
15340;SDS011;7770;52.158;5.372;2022-12-18T16:38:04;30.97;;;20.30;;
15340;SDS011;7770;52.158;5.372;2022-12-18T16:40:50;31.97;;;22.43;;
15340;SDS011;7770;52.158;5.372;2022-12-18T16:43:55;39.33;;;28.07;;
15340;SDS011;7770;52.158;5.372;2022-12-18T16:46:41;33.57;;;23.33;;
15340;SDS011;7770;52.158;5.372;2022-12-18T16:49:33;35.57;;;25.27;;
15340;SDS011;7770;52.158;5.372;2022-12-18T16:52:19;37.40;;;27.07;;
15340;SDS011;7770;52.158;5.372;2022-12-18T16:55:05;38.90;;;27.07;;
15340;SDS011;7770;52.158;5.372;2022-12-18T16:57:52;33.73;;;23.27;;
15340;SDS011;7770;52.158;5.372;2022-12-18T17:00:38;36.13;;;24.30;;
15340;SDS011;7770;52.158;5.372;2022-12-18T17:03:25;29.80;;;21.37;;
15340;SDS011;7770;52.158;5.372;2022-12-18T17:06:11;32.83;;;24.17;;
15340;SDS011;7770;52.158;5.372;2022-12-18T17:08:57;34.70;;;26.63;;
15340;SDS011;7770;52.158;5.372;2022-12-18T17:11:45;34.23;;;23.43;;
15340;SDS011;7770;52.158;5.372;2022-12-18T17:14:32;35.77;;;25.77;;
15340;SDS011;7770;52.158;5.372;2022-12-18T17:17:18;32.43;;;24.10;;
15340;SDS011;7770;52.158;5.372;2022-12-18T17:20:05;57.70;;;40.53;;
15340;SDS011;7770;52.158;5.372;2022-12-18T17:22:51;54.67;;;38.60;;
15340;SDS011;7770;52.158;5.372;2022-12-18T17:25:40;45.17;;;30.10;;
15340;SDS011;7770;52.158;5.372;2022-12-18T17:28:26;54.77;;;35.20;;
15340;SDS011;7770;52.158;5.372;2022-12-18T17:31:19;42.10;;;27.50;;
15340;SDS011;7770;52.158;5.372;2022-12-18T17:34:08;35.87;;;21.13;;
15340;SDS011;7770;52.158;5.372;2022-12-18T17:36:55;32.70;;;24.93;;
15340;SDS011;7770;52.158;5.372;2022-12-18T17:39:41;34.73;;;23.07;;
15340;SDS011;7770;52.158;5.372;2022-12-18T17:42:27;33.90;;;23.47;;
15340;SDS011;7770;52.158;5.372;2022-12-18T17:45:13;39.77;;;25.67;;
15340;SDS011;7770;52.158;5.372;2022-12-18T17:47:59;37.57;;;27.23;;
15340;SDS011;7770;52.158;5.372;2022-12-18T17:50:45;39.97;;;28.83;;
15340;SDS011;7770;52.158;5.372;2022-12-18T17:53:32;36.27;;;26.90;;
15340;SDS011;7770;52.158;5.372;2022-12-18T17:56:19;38.57;;;27.60;;
15340;SDS011;7770;52.158;5.372;2022-12-18T17:59:07;36.43;;;25.10;;